To NAV CANADA Home Page Login to a new session Search on AWWS site Feedback and Comments Disclaimer Vers la page française équivalente Tips FAQ What's new on the site To the Forecasts and Observations / NOTAM section To "File a Flight Plan" website Publications and other links Update of the User's profile FIC Telephone Numbers My Weather Data Folder Route Weather Data Regional Weather Data Local Weather Data To the Forecasts and Observations / NOTAM section
Request Generated 02/23/2017 at 20:46:08 UTC . Weather information available at that time is displayed.

METAR/TAF

SUDBURY/ON    

SPECI CYSB 232040Z 35012G18KT 10SM -SHRA BKN020 03/M01 A2972 RMK SC7
SLP078=
METAR CYSB 232000Z 34013KT 15SM BKN018 03/M01 A2968 RMK ST7 SLP067=
SPECI CYSB 231931Z 35011G17KT 6SM -SHRA BKN012 03/00 A2966 RMK SC7
SLP060=
METAR CYSB 231900Z 35009KT 15SM SCT016 BKN035 03/M00 A2965 RMK CU4SC3
SHRA DIST W-NW SLP057=
METAR CYSB 231800Z 34013KT 20SM SCT012 BKN035 03/00 A2960 RMK SF3SC4
SLP038=

TAF CYSB 231939Z 2320/2408 35012KT P6SM SCT015 BKN030 TEMPO 2320/2322
5SM -SHRASN BKN012 OVC030
FM232200 36008KT P6SM BKN020 TEMPO 2322/2406 BKN025
BECMG 2400/2402 04007KT
FM240600 05006KT 6SM BR FEW006 BKN020 PROB30 2406/2408 11/2SM BR
BKN005
RMK NXT FCST BY 240200Z=
Your time UTC time
Weather data provided by Environment Canada and NAV CANADA